Time;durP1;ratioP1;P1;durP2;ratioP2;P2;SDS_P1;SDS_P2;PMS_P1;PMS_P2;Temp;Humidity;BMP_temperature;BMP_pressure;BME280_temperature;BME280_humidity;BME280_pressure;Samples;Min_cycle;Max_cycle;Signal;HPM_P1;HPM_P2
2021/01/27 00:01:08;;;;;;;9.23;4.40;;;3.30;99.90;;;;;;5090790;28;20060;-64
2021/01/27 00:03:34;;;;;;;7.68;4.15;;;3.20;99.90;;;;;;5089617;28;20055;-66
2021/01/27 00:06:00;;;;;;;10.95;4.35;;;3.20;99.90;;;;;;5090502;28;20325;-66
2021/01/27 00:08:27;;;;;;;6.72;3.88;;;3.20;99.90;;;;;;5089921;28;20020;-67
2021/01/27 00:14:45;;;;;;;9.90;4.57;;;3.20;99.90;;;;;;5078929;28;20069;-65
2021/01/27 00:17:11;;;;;;;6.78;4.60;;;3.10;99.90;;;;;;5091973;28;20036;-65
2021/01/27 00:19:36;;;;;;;11.50;5.22;;;3.10;99.90;;;;;;5089012;28;20341;-65
2021/01/27 00:22:02;;;;;;;7.68;4.85;;;3.20;99.90;;;;;;5082572;28;20477;-67
2021/01/27 00:24:28;;;;;;;11.45;5.18;;;3.20;99.90;;;;;;5089452;28;20038;-65
2021/01/27 00:26:53;;;;;;;8.98;4.65;;;3.20;99.90;;;;;;5090520;28;20020;-65
2021/01/27 00:29:19;;;;;;;8.20;4.70;;;3.10;99.90;;;;;;5090223;28;20469;-66
2021/01/27 00:31:44;;;;;;;9.27;4.75;;;3.10;99.90;;;;;;5083498;28;20028;-66
2021/01/27 00:34:10;;;;;;;8.40;4.75;;;3.10;99.90;;;;;;5089839;28;20456;-66
2021/01/27 00:36:35;;;;;;;9.38;4.90;;;3.10;99.90;;;;;;5089718;28;20051;-66
2021/01/27 00:39:01;;;;;;;12.93;5.50;;;3.10;99.90;;;;;;5086486;28;20043;-66
2021/01/27 00:41:26;;;;;;;8.40;5.05;;;3.10;99.90;;;;;;5084008;28;20572;-67
2021/01/27 00:43:52;;;;;;;9.35;5.43;;;3.10;99.90;;;;;;5081638;28;20026;-65
2021/01/27 00:46:18;;;;;;;12.10;5.57;;;3.10;99.90;;;;;;5093658;28;20377;-65
2021/01/27 00:48:43;;;;;;;9.38;6.05;;;3.10;99.90;;;;;;5089673;28;20020;-65
2021/01/27 00:51:09;;;;;;;10.85;5.85;;;3.10;99.90;;;;;;5088809;28;20099;-66
2021/01/27 00:53:35;;;;;;;11.18;5.97;;;3.10;99.90;;;;;;5072047;28;20115;-67
2021/01/27 00:56:01;;;;;;;8.48;5.72;;;3.00;99.90;;;;;;5068601;28;20019;-67
2021/01/27 00:58:26;;;;;;;9.32;6.53;;;3.00;99.90;;;;;;5091367;28;20485;-65
2021/01/27 01:00:52;;;;;;;10.32;6.28;;;3.00;99.90;;;;;;5088077;28;20016;-68
2021/01/27 01:03:18;;;;;;;9.68;6.95;;;2.90;99.90;;;;;;5068947;28;20056;-66
2021/01/27 01:05:45;;;;;;;12.50;7.30;;;2.80;99.90;;;;;;5070452;28;20087;-64
2021/01/27 01:08:13;;;;;;;11.30;7.03;;;2.80;99.90;;;;;;5089295;28;20477;-65
2021/01/27 01:10:45;;;;;;;14.02;7.45;;;2.80;99.90;;;;;;5071378;28;20028;-66
2021/01/27 01:13:17;;;;;;;14.68;8.73;;;2.80;99.90;;;;;;5089469;28;20095;-66
2021/01/27 01:15:44;;;;;;;16.90;8.88;;;2.80;99.90;;;;;;5102057;28;20165;-66
2021/01/27 01:18:11;;;;;;;15.50;8.23;;;2.70;99.90;;;;;;5098349;28;20048;-68
2021/01/27 01:20:37;;;;;;;18.30;8.85;;;2.70;99.90;;;;;;5089112;28;20044;-65
2021/01/27 01:23:03;;;;;;;11.85;8.68;;;2.80;99.90;;;;;;5089226;28;20024;-65
2021/01/27 01:25:31;;;;;;;15.75;9.50;;;2.80;99.90;;;;;;5088716;28;20491;-65
2021/01/27 01:27:57;;;;;;;15.70;9.00;;;2.70;99.90;;;;;;5055024;28;20020;-65
2021/01/27 01:30:23;;;;;;;16.73;9.45;;;2.70;99.90;;;;;;5073064;28;20081;-66
2021/01/27 01:32:48;;;;;;;17.10;9.30;;;2.70;99.90;;;;;;5087589;28;20032;-66
2021/01/27 01:35:16;;;;;;;18.20;9.38;;;2.70;99.90;;;;;;5091740;28;20039;-63
2021/01/27 01:37:43;;;;;;;15.88;8.75;;;2.70;99.90;;;;;;5089495;28;20040;-66
2021/01/27 01:40:15;;;;;;;13.07;9.57;;;2.70;99.90;;;;;;5089446;28;20024;-67
2021/01/27 01:42:40;;;;;;;16.33;10.50;;;2.60;99.90;;;;;;5088801;28;20039;-66
2021/01/27 01:45:25;;;;;;;18.52;9.43;;;2.60;99.90;;;;;;5088159;28;20040;-66
2021/01/27 01:47:53;;;;;;;16.77;10.45;;;2.60;99.90;;;;;;5088807;28;20016;-65
2021/01/27 01:50:19;;;;;;;19.20;10.02;;;2.50;99.90;;;;;;5089028;28;20093;-64
2021/01/27 01:52:45;;;;;;;18.42;9.68;;;2.50;99.90;;;;;;5087107;28;20024;-66
2021/01/27 01:55:12;;;;;;;14.93;9.23;;;2.50;99.90;;;;;;5089189;28;20457;-65
2021/01/27 01:57:38;;;;;;;19.33;8.90;;;2.60;99.90;;;;;;5086526;28;20569;-66
2021/01/27 02:00:08;;;;;;;19.42;9.15;;;2.50;99.90;;;;;;5088427;28;20020;-63
2021/01/27 02:02:36;;;;;;;17.00;8.80;;;2.50;99.90;;;;;;5088262;28;20031;-66
2021/01/27 02:05:09;;;;;;;16.98;9.98;;;2.50;99.90;;;;;;5087554;28;20016;-65
2021/01/27 02:07:35;;;;;;;14.73;9.13;;;2.50;99.90;;;;;;5088871;28;20016;-67
2021/01/27 02:10:01;;;;;;;18.10;10.15;;;2.50;99.90;;;;;;5089136;28;20027;-65
2021/01/27 02:12:48;;;;;;;17.45;10.02;;;2.50;99.90;;;;;;5087503;28;20024;-66
2021/01/27 02:15:45;;;;;;;12.70;9.38;;;2.40;99.90;;;;;;5080536;28;20524;-66
2021/01/27 02:19:00;;;;;;;15.07;9.10;;;2.40;99.90;;;;;;5065310;28;20040;-67
2021/01/27 02:21:56;;;;;;;15.32;9.07;;;2.30;99.90;;;;;;5066130;28;20056;-66
2021/01/27 02:24:59;;;;;;;11.30;8.27;;;2.40;99.90;;;;;;5072986;28;20032;-65
2021/01/27 02:27:40;;;;;;;14.80;8.35;;;2.40;99.90;;;;;;5060391;28;20028;-66
2021/01/27 02:30:27;;;;;;;16.70;8.80;;;2.40;99.90;;;;;;5067824;28;20493;-66
2021/01/27 02:33:26;;;;;;;18.70;9.15;;;2.30;99.90;;;;;;5059877;28;20453;-66
2021/01/27 02:36:07;;;;;;;15.43;9.20;;;2.30;99.90;;;;;;5058385;28;20028;-69
2021/01/27 02:38:42;;;;;;;14.45;8.45;;;2.30;99.90;;;;;;5067303;28;20024;-68
2021/01/27 02:41:13;;;;;;;12.68;8.23;;;2.30;99.90;;;;;;5065331;28;20036;-68
2021/01/27 02:43:51;;;;;;;11.95;8.10;;;2.40;99.90;;;;;;5062779;28;20029;-67
2021/01/27 02:46:32;;;;;;;13.98;7.78;;;2.30;99.90;;;;;;5067682;28;20120;-66
2021/01/27 02:49:09;;;;;;;15.80;9.07;;;2.30;99.90;;;;;;5065506;28;20025;-66
2021/01/27 02:51:50;;;;;;;14.20;8.57;;;2.30;99.90;;;;;;5050582;28;20523;-66
2021/01/27 02:54:41;;;;;;;15.82;8.63;;;2.30;99.90;;;;;;5060013;28;20029;-67
2021/01/27 02:57:08;;;;;;;11.80;7.90;;;2.30;99.90;;;;;;5060872;28;20043;-66
2021/01/27 03:00:00;;;;;;;11.40;8.23;;;2.30;99.90;;;;;;5064028;28;20374;-67
2021/01/27 03:02:43;;;;;;;13.15;6.82;;;2.30;99.90;;;;;;5065991;28;20370;-67
2021/01/27 03:05:46;;;;;;;10.38;7.47;;;2.30;99.90;;;;;;5067754;28;20186;-66
2021/01/27 03:08:14;;;;;;;12.23;7.32;;;2.30;99.90;;;;;;4983905;28;20058;-67
2021/01/27 03:10:45;;;;;;;10.20;7.22;;;2.30;99.90;;;;;;5057213;28;20041;-67
2021/01/27 03:13:11;;;;;;;13.27;7.63;;;2.30;99.90;;;;;;5067150;28;20056;-66
2021/01/27 03:15:38;;;;;;;12.63;8.82;;;2.30;99.90;;;;;;5079739;28;20127;-65
2021/01/27 03:18:09;;;;;;;9.60;7.18;;;2.30;99.90;;;;;;5067045;28;20037;-67
2021/01/27 03:20:38;;;;;;;12.35;7.53;;;2.20;99.90;;;;;;5067709;28;20024;-65
2021/01/27 03:23:13;;;;;;;11.45;7.15;;;2.20;99.90;;;;;;5075260;28;20381;-65
2021/01/27 03:25:55;;;;;;;12.65;7.38;;;2.20;99.90;;;;;;5059877;28;20021;-65
2021/01/27 03:28:26;;;;;;;11.32;7.30;;;2.10;99.90;;;;;;5067073;28;20020;-66
2021/01/27 03:30:52;;;;;;;13.82;8.15;;;2.10;99.90;;;;;;5072020;28;20083;-66
2021/01/27 03:33:37;;;;;;;11.13;7.68;;;2.20;99.90;;;;;;5070132;28;20056;-66
2021/01/27 03:36:05;;;;;;;14.50;8.82;;;2.20;99.90;;;;;;5073010;28;20024;-66
2021/01/27 03:38:35;;;;;;;15.18;8.63;;;2.30;99.90;;;;;;5069575;28;20070;-65
2021/01/27 03:41:09;;;;;;;10.25;7.55;;;2.30;99.90;;;;;;5070062;28;20017;-65
2021/01/27 03:43:44;;;;;;;12.30;8.27;;;2.30;99.90;;;;;;5071314;28;20024;-68
2021/01/27 03:46:13;;;;;;;10.48;7.97;;;2.30;99.90;;;;;;5072211;28;20091;-68
2021/01/27 03:48:45;;;;;;;11.10;7.72;;;2.30;99.90;;;;;;5074773;28;20032;-65
2021/01/27 03:51:12;;;;;;;10.13;8.13;;;2.30;99.90;;;;;;5070394;28;20050;-64
2021/01/27 03:53:39;;;;;;;10.50;8.02;;;2.40;99.90;;;;;;5077609;28;20043;-68
2021/01/27 03:56:11;;;;;;;12.88;8.85;;;2.40;99.90;;;;;;5071316;28;20065;-65
2021/01/27 03:58:39;;;;;;;10.33;8.60;;;2.40;99.90;;;;;;5074205;28;20032;-66
2021/01/27 04:01:21;;;;;;;12.70;8.18;;;2.40;99.90;;;;;;5057281;28;20023;-67
2021/01/27 04:03:48;;;;;;;10.48;8.43;;;2.40;99.90;;;;;;5054818;28;20035;-64
2021/01/27 04:06:14;;;;;;;10.82;8.05;;;2.40;99.90;;;;;;5067778;28;20070;-68
2021/01/27 04:08:40;;;;;;;11.50;8.65;;;2.40;99.90;;;;;;5072289;28;20063;-66
2021/01/27 04:11:06;;;;;;;10.02;8.65;;;2.40;99.90;;;;;;5068037;28;20434;-65
2021/01/27 04:13:32;;;;;;;12.55;9.63;;;2.40;99.90;;;;;;5079780;28;20053;-66
2021/01/27 04:15:58;;;;;;;15.25;10.45;;;2.50;99.90;;;;;;5069883;28;20119;-67
2021/01/27 04:18:25;;;;;;;11.88;10.20;;;2.40;99.90;;;;;;5052698;28;20085;-65
2021/01/27 04:20:50;;;;;;;15.27;10.82;;;2.40;99.90;;;;;;5069296;28;20082;-63
2021/01/27 04:23:16;;;;;;;17.00;10.98;;;2.40;99.90;;;;;;5070544;28;20520;-65
2021/01/27 04:25:42;;;;;;;16.63;11.77;;;2.40;99.90;;;;;;5070808;28;20028;-65
2021/01/27 04:28:08;;;;;;;17.17;12.88;;;2.30;99.90;;;;;;5071039;28;20060;-65
2021/01/27 04:30:36;;;;;;;17.45;13.15;;;2.40;99.90;;;;;;5056206;28;20101;-64
2021/01/27 04:33:07;;;;;;;15.32;11.73;;;2.40;99.90;;;;;;5065121;28;20489;-69
2021/01/27 04:35:32;;;;;;;20.35;13.65;;;2.40;99.90;;;;;;5064402;28;20013;-66
2021/01/27 04:37:59;;;;;;;18.60;13.63;;;2.40;99.90;;;;;;5068570;28;20029;-64
2021/01/27 04:40:40;;;;;;;15.73;12.77;;;2.30;99.90;;;;;;5068362;28;20504;-64
2021/01/27 04:43:19;;;;;;;17.75;13.43;;;2.40;99.90;;;;;;5049647;28;20043;-65
2021/01/27 04:45:50;;;;;;;17.95;14.00;;;2.40;99.90;;;;;;5068937;28;20093;-64
2021/01/27 04:48:25;;;;;;;17.58;13.55;;;2.40;99.90;;;;;;5072315;28;20013;-65
2021/01/27 04:50:59;;;;;;;23.92;16.10;;;2.40;99.90;;;;;;5068581;28;20078;-65
2021/01/27 04:53:48;;;;;;;18.90;13.77;;;2.40;99.90;;;;;;5069379;28;20080;-65
2021/01/27 04:56:27;;;;;;;17.27;13.38;;;2.40;99.90;;;;;;5059756;28;20032;-65
2021/01/27 04:59:01;;;;;;;22.45;13.63;;;2.30;99.90;;;;;;5060205;28;20025;-65
2021/01/27 05:01:54;;;;;;;21.00;14.00;;;2.30;99.90;;;;;;5069163;28;20450;-67
2021/01/27 05:04:48;;;;;;;17.77;13.57;;;2.40;99.90;;;;;;5063756;28;20036;-64
2021/01/27 05:07:19;;;;;;;21.58;14.90;;;2.40;99.90;;;;;;5067207;28;20032;-67
2021/01/27 05:09:57;;;;;;;18.67;14.38;;;2.40;99.90;;;;;;5070060;28;20013;-65
2021/01/27 05:12:27;;;;;;;23.65;15.50;;;2.40;99.90;;;;;;5049076;28;20022;-65
2021/01/27 05:14:54;;;;;;;19.77;14.05;;;2.40;99.90;;;;;;5069042;28;20517;-66
2021/01/27 05:17:21;;;;;;;16.60;13.32;;;2.40;99.90;;;;;;5089735;28;20039;-64
2021/01/27 05:19:48;;;;;;;17.80;13.48;;;2.40;99.90;;;;;;5089530;28;20023;-66
2021/01/27 05:22:16;;;;;;;14.15;11.95;;;2.40;99.90;;;;;;5089482;28;20496;-65
2021/01/27 05:24:43;;;;;;;17.20;12.88;;;2.30;99.90;;;;;;5097729;28;20027;-66
2021/01/27 05:27:17;;;;;;;17.52;11.77;;;2.40;99.90;;;;;;5083146;28;20388;-66
2021/01/27 05:30:04;;;;;;;16.92;12.82;;;2.40;99.90;;;;;;5088898;28;20032;-64
2021/01/27 05:32:49;;;;;;;16.15;11.57;;;2.40;99.90;;;;;;5083794;28;20040;-65
2021/01/27 05:35:36;;;;;;;14.55;12.02;;;2.40;99.90;;;;;;5088479;28;20053;-64
2021/01/27 05:38:24;;;;;;;16.08;11.60;;;2.40;99.90;;;;;;5088356;28;20028;-66
2021/01/27 05:40:53;;;;;;;17.83;13.18;;;2.40;99.90;;;;;;5075763;28;20043;-65
2021/01/27 05:43:25;;;;;;;15.52;12.05;;;2.50;99.90;;;;;;5089330;28;20020;-65
2021/01/27 05:45:51;;;;;;;16.40;12.23;;;2.50;99.90;;;;;;5091200;28;20078;-63
2021/01/27 05:48:43;;;;;;;16.35;12.63;;;2.50;99.90;;;;;;5089635;28;20266;-68
2021/01/27 05:51:09;;;;;;;14.48;10.73;;;2.50;99.90;;;;;;5086571;28;20052;-67
2021/01/27 05:53:34;;;;;;;17.60;12.88;;;2.50;99.90;;;;;;5098217;28;20117;-65
2021/01/27 05:56:12;;;;;;;15.23;11.88;;;2.40;99.90;;;;;;5089063;28;20024;-67
2021/01/27 05:59:01;;;;;;;20.77;13.85;;;2.50;99.90;;;;;;5089666;28;20036;-67
2021/01/27 06:01:44;;;;;;;18.63;14.00;;;2.50;99.90;;;;;;5087112;28;20029;-65
2021/01/27 06:04:12;;;;;;;20.30;13.77;;;2.50;99.90;;;;;;5088544;28;20422;-66
2021/01/27 06:06:43;;;;;;;20.98;15.07;;;2.50;99.90;;;;;;5089475;28;20452;-64
2021/01/27 06:09:09;;;;;;;21.58;15.82;;;2.60;99.90;;;;;;5088571;28;20513;-65
2021/01/27 06:11:35;;;;;;;23.73;16.77;;;2.60;99.90;;;;;;5088182;28;20528;-65
2021/01/27 06:14:06;;;;;;;26.65;17.92;;;2.60;99.90;;;;;;5085722;28;20023;-66
2021/01/27 06:16:43;;;;;;;26.00;18.87;;;2.60;99.90;;;;;;5085286;28;20184;-67
2021/01/27 06:19:17;;;;;;;23.80;16.88;;;2.50;99.90;;;;;;5083931;28;20028;-67
2021/01/27 06:21:54;;;;;;;27.48;18.38;;;2.50;99.90;;;;;;5079958;28;20023;-66
2021/01/27 06:24:40;;;;;;;28.70;18.73;;;2.60;99.90;;;;;;5088504;28;20032;-68
2021/01/27 06:27:25;;;;;;;31.02;20.45;;;2.60;99.90;;;;;;5087524;28;20085;-66
2021/01/27 06:30:18;;;;;;;34.97;20.38;;;2.60;99.90;;;;;;5087683;28;20124;-66
2021/01/27 06:33:11;;;;;;;30.95;19.75;;;2.50;99.90;;;;;;5073733;28;20020;-67
2021/01/27 06:36:04;;;;;;;34.67;19.48;;;2.60;99.90;;;;;;5086406;28;20024;-69
2021/01/27 06:38:51;;;;;;;35.15;21.60;;;2.60;99.90;;;;;;5084412;28;20047;-67
2021/01/27 06:41:34;;;;;;;32.40;19.90;;;2.60;99.90;;;;;;5085308;28;20573;-66
2021/01/27 06:44:25;;;;;;;35.88;21.88;;;2.60;99.90;;;;;;5084938;28;20108;-68
2021/01/27 06:47:12;;;;;;;37.17;21.15;;;2.60;99.90;;;;;;5085117;28;20048;-69
2021/01/27 06:49:58;;;;;;;28.73;18.40;;;2.70;99.90;;;;;;5090107;28;20034;-68
2021/01/27 06:52:41;;;;;;;38.28;20.95;;;2.70;99.90;;;;;;5069556;28;20549;-66
2021/01/27 06:55:15;;;;;;;31.13;18.55;;;2.80;99.90;;;;;;5086899;28;20078;-68
2021/01/27 06:58:11;;;;;;;33.90;19.73;;;2.70;99.90;;;;;;5076672;28;20085;-69
2021/01/27 07:01:03;;;;;;;30.58;18.10;;;2.70;99.90;;;;;;5076038;28;20017;-70
2021/01/27 07:03:41;;;;;;;31.65;18.10;;;2.70;99.90;;;;;;5087642;28;20020;-71
2021/01/27 07:06:51;;;;;;;29.60;17.70;;;2.70;99.90;;;;;;5088465;28;20073;-70
2021/01/27 07:09:32;;;;;;;29.35;18.08;;;2.80;99.90;;;;;;5067777;28;20025;-70
2021/01/27 07:12:04;;;;;;;32.28;17.85;;;2.80;99.90;;;;;;5083687;28;20517;-69
2021/01/27 07:14:37;;;;;;;32.25;17.63;;;2.70;99.90;;;;;;5076919;28;20974;-69
2021/01/27 07:17:17;;;;;;;28.85;17.38;;;2.80;99.90;;;;;;5086020;28;20400;-70
2021/01/27 07:20:02;;;;;;;29.30;17.77;;;2.80;99.90;;;;;;5088391;28;20381;-70
2021/01/27 07:22:36;;;;;;;36.92;19.10;;;2.80;99.90;;;;;;5087572;28;20073;-70
2021/01/27 07:25:16;;;;;;;35.33;19.08;;;2.80;99.90;;;;;;5083255;28;20035;-69
2021/01/27 07:27:54;;;;;;;32.15;19.33;;;2.80;99.90;;;;;;5085311;28;20059;-70
2021/01/27 07:30:25;;;;;;;36.25;19.65;;;2.80;99.90;;;;;;5057313;28;20029;-70
2021/01/27 07:32:56;;;;;;;39.25;21.98;;;2.80;99.90;;;;;;5070698;28;20540;-71
2021/01/27 07:35:35;;;;;;;39.70;21.50;;;2.80;99.90;;;;;;5088254;28;20024;-70
2021/01/27 07:38:23;;;;;;;36.78;21.27;;;2.80;99.90;;;;;;5083080;28;20028;-70
2021/01/27 07:40:55;;;;;;;32.97;19.75;;;2.80;99.90;;;;;;5086943;28;20088;-70
2021/01/27 07:43:27;;;;;;;33.05;18.52;;;2.80;99.90;;;;;;5087453;28;20038;-70
2021/01/27 07:45:54;;;;;;;32.50;19.13;;;2.80;99.90;;;;;;5086576;28;20020;-69
2021/01/27 07:48:31;;;;;;;35.33;19.65;;;2.90;99.90;;;;;;5087597;28;20119;-70
2021/01/27 07:51:04;;;;;;;29.08;18.73;;;2.90;99.90;;;;;;5076139;28;20024;-70
2021/01/27 07:53:35;;;;;;;31.30;18.63;;;2.90;99.90;;;;;;5087389;28;20032;-70
2021/01/27 07:56:17;;;;;;;35.55;19.58;;;2.90;99.90;;;;;;5089819;28;20097;-70
2021/01/27 07:58:54;;;;;;;37.00;19.92;;;2.90;99.90;;;;;;5091945;28;20531;-69
2021/01/27 08:01:31;;;;;;;37.38;21.75;;;3.00;99.90;;;;;;5091918;28;20024;-69
2021/01/27 08:04:18;;;;;;;40.15;21.23;;;3.00;99.90;;;;;;5088649;28;20056;-70
2021/01/27 08:06:51;;;;;;;44.05;23.35;;;3.00;99.90;;;;;;5082195;28;20138;-69
2021/01/27 08:09:25;;;;;;;;;;;3.00;99.90;;;;;;5083813;28;20107;-69
2021/01/27 08:11:51;;;;;;;50.47;24.77;;;3.00;99.90;;;;;;5081105;28;19945;-69
2021/01/27 08:14:55;;;;;;;48.35;24.95;;;3.00;99.90;;;;;;5073033;28;20102;-71
2021/01/27 08:17:45;;;;;;;49.15;25.35;;;3.00;99.90;;;;;;5070355;28;20081;-70
2021/01/27 08:20:33;;;;;;;49.40;24.95;;;3.00;99.90;;;;;;5054473;28;20037;-70
2021/01/27 08:23:20;;;;;;;57.38;27.13;;;3.10;99.90;;;;;;5051390;28;20028;-70
2021/01/27 08:26:02;;;;;;;50.40;26.70;;;3.10;99.90;;;;;;5071205;28;20016;-72
2021/01/27 08:28:36;;;;;;;58.63;27.80;;;3.10;99.90;;;;;;5064886;28;20020;-70
2021/01/27 08:31:22;;;;;;;53.17;25.90;;;3.20;99.90;;;;;;5071083;28;20048;-71
2021/01/27 08:33:47;;;;;;;54.78;27.55;;;3.20;99.90;;;;;;5070806;28;20036;-72
2021/01/27 08:36:31;;;;;;;52.58;25.75;;;3.20;99.90;;;;;;5071398;28;20517;-72
2021/01/27 08:39:02;;;;;;;52.03;27.23;;;3.30;99.90;;;;;;5070173;28;20104;-73
2021/01/27 08:41:56;;;;;;;67.07;28.77;;;3.30;99.90;;;;;;5069750;28;20027;-71
2021/01/27 08:44:22;;;;;;;58.58;27.95;;;3.30;99.90;;;;;;5070581;28;20115;-71
2021/01/27 08:46:56;;;;;;;50.28;25.23;;;3.40;99.90;;;;;;5070724;28;20108;-71
2021/01/27 08:49:38;;;;;;;48.92;26.80;;;3.40;99.90;;;;;;5070000;28;20032;-71
2021/01/27 08:52:09;;;;;;;66.13;28.98;;;3.40;99.90;;;;;;5070611;28;20630;-71
2021/01/27 08:54:35;;;;;;;63.70;27.77;;;3.40;99.90;;;;;;5070015;28;20025;-70
2021/01/27 08:57:29;;;;;;;67.22;30.15;;;3.40;99.90;;;;;;5070491;28;20041;-71
2021/01/27 08:59:56;;;;;;;60.38;27.80;;;3.50;99.90;;;;;;5058151;28;20073;-70
2021/01/27 09:02:46;;;;;;;64.50;27.85;;;3.50;99.90;;;;;;5070480;28;20024;-69
2021/01/27 09:05:15;;;;;;;64.50;28.58;;;3.60;99.90;;;;;;5056844;28;20039;-72
2021/01/27 09:08:23;;;;;;;61.38;28.90;;;3.60;99.90;;;;;;5069916;28;20033;-72
2021/01/27 09:10:56;;;;;;;67.43;29.80;;;3.60;99.90;;;;;;5052021;28;20016;-71
2021/01/27 09:13:27;;;;;;;70.53;29.73;;;3.60;99.90;;;;;;5063402;28;20083;-71
2021/01/27 09:16:16;;;;;;;62.78;28.45;;;3.70;99.90;;;;;;5075736;28;20055;-72
2021/01/27 09:18:53;;;;;;;72.90;29.73;;;3.70;99.90;;;;;;5089188;28;20163;-74
2021/01/27 09:21:20;;;;;;;65.05;29.83;;;3.80;99.90;;;;;;5073924;28;20025;-74
2021/01/27 09:23:54;;;;;;;56.80;27.55;;;3.70;99.90;;;;;;5068741;28;20028;-73
2021/01/27 09:26:30;;;;;;;66.82;29.13;;;3.80;99.90;;;;;;5095221;28;20028;-70
2021/01/27 09:29:07;;;;;;;65.72;29.05;;;3.80;99.90;;;;;;5090113;28;20016;-70
2021/01/27 09:31:33;;;;;;;64.78;27.08;;;3.80;99.90;;;;;;5082664;28;20530;-71
2021/01/27 09:33:59;;;;;;;51.00;25.90;;;3.80;99.90;;;;;;5081853;28;20020;-72
2021/01/27 09:36:28;;;;;;;53.42;25.27;;;3.80;99.90;;;;;;5071575;28;20020;-72
2021/01/27 09:38:57;;;;;;;58.53;27.23;;;3.90;99.90;;;;;;5088668;28;20048;-71
2021/01/27 09:41:28;;;;;;;58.55;26.05;;;3.90;99.90;;;;;;5088730;28;20063;-72
2021/01/27 09:43:56;;;;;;;60.80;27.38;;;3.90;99.90;;;;;;5098492;28;20053;-71
2021/01/27 09:46:36;;;;;;;55.45;25.80;;;4.00;99.90;;;;;;5079884;28;20057;-71
2021/01/27 09:49:09;;;;;;;57.17;24.55;;;4.00;99.90;;;;;;5089814;28;20095;-72
2021/01/27 09:51:40;;;;;;;53.80;24.80;;;4.10;99.90;;;;;;5087942;28;20028;-71
2021/01/27 09:54:06;;;;;;;62.20;26.15;;;4.10;99.90;;;;;;5079767;28;20024;-69
2021/01/27 09:56:33;;;;;;;65.85;26.67;;;4.10;99.90;;;;;;5087106;28;20034;-73
2021/01/27 09:59:07;;;;;;;61.72;27.05;;;4.10;99.90;;;;;;5078346;28;20069;-71
2021/01/27 10:01:43;;;;;;;74.70;27.58;;;4.20;99.90;;;;;;5089283;28;20055;-72
2021/01/27 10:04:15;;;;;;;82.65;27.38;;;4.10;99.90;;;;;;5060069;28;20068;-71
2021/01/27 10:06:49;;;;;;;63.40;26.80;;;4.20;99.90;;;;;;5088248;28;20040;-71
2021/01/27 10:09:17;;;;;;;50.20;24.52;;;4.20;99.90;;;;;;5089634;28;20020;-72
2021/01/27 10:11:44;;;;;;;65.15;26.95;;;4.30;99.90;;;;;;5089402;28;20039;-72
2021/01/27 10:14:22;;;;;;;73.20;27.42;;;4.30;99.90;;;;;;5034659;28;20393;-71
2021/01/27 10:17:00;;;;;;;69.82;29.35;;;4.40;99.90;;;;;;5040854;28;20057;-72
2021/01/27 10:19:47;;;;;;;71.75;27.80;;;4.40;99.90;;;;;;5046055;28;20050;-72
2021/01/27 10:22:24;;;;;;;76.60;28.05;;;4.40;99.90;;;;;;5069264;28;20017;-71
2021/01/27 10:24:51;;;;;;;66.28;26.60;;;4.40;99.90;;;;;;5056282;28;20021;-73
2021/01/27 10:27:36;;;;;;;75.93;26.92;;;4.50;99.90;;;;;;5065733;28;20039;-73
2021/01/27 10:30:27;;;;;;;59.20;25.90;;;4.50;99.90;;;;;;5069128;28;20071;-72
2021/01/27 10:32:54;;;;;;;72.85;27.77;;;4.50;99.90;;;;;;5047839;28;20108;-71
2021/01/27 10:35:23;;;;;;;75.60;28.05;;;4.60;99.90;;;;;;5067920;28;20059;-71
2021/01/27 10:38:14;;;;;;;68.20;28.13;;;4.60;99.90;;;;;;5055092;28;20077;-71
2021/01/27 10:41:00;;;;;;;71.85;27.25;;;4.60;99.90;;;;;;5066439;28;20256;-72
2021/01/27 10:43:28;;;;;;;57.65;25.30;;;4.60;99.90;;;;;;5067259;28;20041;-71
2021/01/27 10:45:54;;;;;;;68.18;27.80;;;4.60;99.90;;;;;;5068519;28;20020;-71
2021/01/27 10:48:20;;;;;;;67.97;27.88;;;4.70;99.90;;;;;;5066665;28;20051;-71
2021/01/27 10:51:08;;;;;;;88.13;29.42;;;4.70;99.90;;;;;;5067671;28;20482;-70
2021/01/27 10:53:39;;;;;;;75.38;29.25;;;4.70;99.90;;;;;;5062574;28;20032;-71
2021/01/27 10:56:05;;;;;;;76.10;28.63;;;4.80;99.90;;;;;;5067965;28;20743;-70
2021/01/27 10:58:30;;;;;;;78.88;29.23;;;4.70;99.90;;;;;;5068425;28;20044;-72
2021/01/27 11:00:57;;;;;;;73.10;29.30;;;4.80;99.90;;;;;;5049693;28;20124;-72
2021/01/27 11:03:22;;;;;;;71.13;29.63;;;4.80;99.90;;;;;;5066597;28;20174;-71
2021/01/27 11:05:48;;;;;;;63.33;27.23;;;4.80;99.90;;;;;;5067914;28;20482;-71
2021/01/27 11:08:27;;;;;;;70.07;28.98;;;4.80;99.90;;;;;;5067872;28;20032;-71
2021/01/27 11:10:55;;;;;;;88.93;31.15;;;4.90;99.90;;;;;;5066349;28;20027;-72
2021/01/27 11:13:22;;;;;;;91.05;31.50;;;4.90;99.90;;;;;;5059021;28;20044;-72
2021/01/27 11:15:48;;;;;;;82.05;29.15;;;4.90;99.90;;;;;;5053970;28;20097;-70
2021/01/27 11:18:14;;;;;;;72.32;29.75;;;4.90;99.90;;;;;;5067819;28;20108;-71
2021/01/27 11:20:40;;;;;;;77.13;29.48;;;4.90;99.90;;;;;;5068457;28;21012;-71
2021/01/27 11:23:05;;;;;;;66.10;28.42;;;5.00;99.90;;;;;;5052855;28;20537;-70
2021/01/27 11:25:31;;;;;;;81.63;31.33;;;5.00;99.90;;;;;;5070494;28;20031;-72
2021/01/27 11:27:56;;;;;;;82.05;31.10;;;5.10;99.90;;;;;;5069689;28;20028;-70
2021/01/27 11:30:25;;;;;;;72.82;30.38;;;5.10;99.90;;;;;;5067042;28;20112;-73
2021/01/27 11:32:51;;;;;;;80.32;30.42;;;5.20;99.90;;;;;;5068187;28;20538;-69
2021/01/27 11:35:18;;;;;;;85.50;29.95;;;5.30;99.90;;;;;;5084107;28;20051;-70
2021/01/27 11:37:44;;;;;;;68.10;27.45;;;5.40;99.90;;;;;;5091978;28;20111;-71
2021/01/27 11:40:11;;;;;;;85.97;29.92;;;5.40;99.90;;;;;;5065846;28;20024;-72
2021/01/27 11:42:37;;;;;;;57.50;27.23;;;5.40;99.90;;;;;;5071043;28;20086;-73
2021/01/27 11:45:05;;;;;;;62.33;27.35;;;5.50;99.90;;;;;;5071659;28;20037;-71
2021/01/27 11:47:30;;;;;;;53.65;25.50;;;5.60;99.90;;;;;;5069672;28;20429;-71
2021/01/27 11:49:56;;;;;;;81.25;29.35;;;5.70;99.90;;;;;;5079576;28;20107;-72
2021/01/27 11:52:22;;;;;;;61.08;26.35;;;5.60;99.90;;;;;;5059457;28;20083;-72
2021/01/27 11:54:50;;;;;;;56.47;27.40;;;5.60;99.90;;;;;;5065688;28;20104;-71
2021/01/27 11:57:16;;;;;;;74.63;28.67;;;5.60;99.90;;;;;;5077548;28;20089;-70
2021/01/27 11:59:42;;;;;;;74.97;27.35;;;5.70;99.90;;;;;;5057384;28;20401;-71
2021/01/27 12:02:07;;;;;;;62.97;25.27;;;5.70;99.90;;;;;;5068750;28;20025;-72
2021/01/27 12:04:34;;;;;;;67.43;28.08;;;5.70;99.90;;;;;;5055035;28;20031;-71
2021/01/27 12:07:00;;;;;;;74.22;29.02;;;5.80;99.90;;;;;;5078381;28;20031;-71
2021/01/27 12:09:28;;;;;;;69.72;27.13;;;5.80;99.90;;;;;;5074884;28;20033;-72
2021/01/27 12:11:55;;;;;;;76.90;28.55;;;5.80;99.90;;;;;;5058305;28;20071;-71
2021/01/27 12:14:20;;;;;;;65.15;28.10;;;5.80;99.90;;;;;;5069441;28;20021;-72
2021/01/27 12:16:46;;;;;;;69.45;26.88;;;5.80;99.90;;;;;;5072574;28;20143;-71
2021/01/27 12:19:11;;;;;;;62.08;26.40;;;5.80;99.90;;;;;;5056184;28;20055;-70
2021/01/27 12:21:37;;;;;;;66.28;27.30;;;5.90;99.90;;;;;;5071219;28;20060;-69
2021/01/27 12:24:04;;;;;;;62.47;26.55;;;5.90;99.90;;;;;;5070559;28;20021;-69
2021/01/27 12:26:30;;;;;;;73.95;27.02;;;6.00;99.90;;;;;;5064479;28;20064;-68
2021/01/27 12:28:56;;;;;;;73.07;27.02;;;6.00;99.90;;;;;;5052547;28;20048;-67
2021/01/27 12:31:21;;;;;;;71.15;27.30;;;6.10;99.90;;;;;;5070974;28;20025;-70
2021/01/27 12:33:48;;;;;;;64.82;25.98;;;6.10;99.90;;;;;;5052973;28;20028;-68
2021/01/27 12:36:14;;;;;;;56.75;23.73;;;6.10;99.90;;;;;;5070602;28;20161;-66
2021/01/27 12:38:39;;;;;;;57.00;25.88;;;6.10;99.90;;;;;;5051390;28;20128;-69
2021/01/27 12:41:05;;;;;;;71.63;26.48;;;6.10;99.90;;;;;;5069729;28;20024;-69
2021/01/27 12:43:30;;;;;;;59.20;25.23;;;6.10;99.90;;;;;;5070040;28;20039;-68
2021/01/27 12:45:56;;;;;;;69.75;26.70;;;6.10;99.90;;;;;;5069491;28;20021;-69
2021/01/27 12:48:22;;;;;;;60.75;25.50;;;6.10;99.90;;;;;;5070155;28;20028;-68
2021/01/27 12:50:48;;;;;;;63.20;26.38;;;6.20;99.90;;;;;;5069844;28;20031;-68
2021/01/27 12:53:13;;;;;;;76.28;27.63;;;6.20;99.90;;;;;;5070802;28;20021;-68
2021/01/27 12:55:39;;;;;;;65.43;24.98;;;6.30;99.90;;;;;;5069882;28;20024;-68
2021/01/27 12:58:04;;;;;;;77.00;25.83;;;6.40;99.90;;;;;;5070410;28;20618;-68
2021/01/27 13:00:30;;;;;;;69.53;26.38;;;6.40;99.90;;;;;;5070041;28;20288;-69
2021/01/27 13:02:56;;;;;;;63.53;24.63;;;6.40;99.90;;;;;;5066759;28;20021;-69
2021/01/27 13:05:24;;;;;;;70.95;27.08;;;6.40;99.90;;;;;;5051685;28;20110;-68
2021/01/27 13:07:50;;;;;;;56.65;24.02;;;6.40;99.90;;;;;;5053745;28;20028;-69
2021/01/27 13:10:17;;;;;;;64.65;24.25;;;6.50;99.90;;;;;;5041083;28;20028;-68
2021/01/27 13:12:43;;;;;;;68.72;24.85;;;6.60;99.90;;;;;;5052180;28;20479;-67
2021/01/27 13:15:12;;;;;;;56.15;23.83;;;6.50;99.90;;;;;;5073136;28;20127;-67